Time;durP1;ratioP1;P1;durP2;ratioP2;P2;SDS_P1;SDS_P2;PMS_P1;PMS_P2;Temp;Humidity;BMP_temperature;BMP_pressure;BME280_temperature;BME280_humidity;BME280_pressure;Samples;Min_cycle;Max_cycle;Signal;HPM_P1;HPM_P2
2023/02/16 00:01:48;;;;;;;;;42.25;33.00;;;;;;;;5040666;28;50956;-50
2023/02/16 00:04:32;;;;;;;;;44.50;34.75;;;;;;;;5040295;28;51550;-50
2023/02/16 00:07:17;;;;;;;;;43.00;34.00;;;;;;;;5040451;28;51178;-48
2023/02/16 00:10:01;;;;;;;;;42.25;33.25;;;;;;;;5039954;28;51595;-53
2023/02/16 00:15:49;;;;;;;;;45.25;33.75;;;;;;;;5058799;28;51553;-50
2023/02/16 00:18:33;;;;;;;;;32.25;30.75;;;;;;;;5060248;28;51168;-49
2023/02/16 00:21:18;;;;;;;;;43.00;32.75;;;;;;;;5060475;28;51391;-51
2023/02/16 00:24:02;;;;;;;;;43.75;34.00;;;;;;;;5060216;28;51161;-48
2023/02/16 00:26:47;;;;;;;;;43.75;35.00;;;;;;;;5050900;28;51120;-53
2023/02/16 00:29:33;;;;;;;;;41.25;31.50;;;;;;;;5059928;28;51167;-54
2023/02/16 00:32:17;;;;;;;;;40.25;31.50;;;;;;;;5060267;28;51172;-47
2023/02/16 00:35:04;;;;;;;;;49.00;36.00;;;;;;;;5053129;28;51149;-49
2023/02/16 00:37:48;;;;;;;;;44.50;34.25;;;;;;;;5039751;28;51059;-50
2023/02/16 00:40:33;;;;;;;;;40.25;33.50;;;;;;;;5039598;28;51158;-49
2023/02/16 00:43:23;;;;;;;;;43.00;33.25;;;;;;;;5041151;28;51123;-51
2023/02/16 00:46:08;;;;;;;;;43.50;33.75;;;;;;;;5059902;28;51544;-52
2023/02/16 00:48:52;;;;;;;;;48.25;35.00;;;;;;;;5059537;28;51133;-48
2023/02/16 00:51:36;;;;;;;;;44.00;33.50;;;;;;;;5059106;28;51311;-54
2023/02/16 00:54:21;;;;;;;;;42.50;34.00;;;;;;;;5052966;28;51425;-51
2023/02/16 00:57:05;;;;;;;;;36.50;30.00;;;;;;;;5039538;28;51202;-53
2023/02/16 00:59:55;;;;;;;;;41.00;32.50;;;;;;;;5038897;28;51177;-52
2023/02/16 01:02:39;;;;;;;;;40.25;32.25;;;;;;;;5051128;28;51152;-50
2023/02/16 01:05:23;;;;;;;;;45.50;34.00;;;;;;;;5059679;28;51626;-52
2023/02/16 01:11:22;;;;;;;;;45.50;34.00;;;;;;;;5059757;28;51488;-53
2023/02/16 01:14:09;;;;;;;;;43.50;33.75;;;;;;;;5059271;28;51088;-52
2023/02/16 01:16:53;;;;;;;;;46.50;34.25;;;;;;;;5058861;28;51045;-54
2023/02/16 01:19:38;;;;;;;;;21.50;16.75;;;;;;;;5059310;28;51504;-52
2023/02/16 01:22:23;;;;;;;;;44.25;32.50;;;;;;;;5058567;28;51214;-53
2023/02/16 01:25:07;;;;;;;;;44.75;35.25;;;;;;;;5059181;28;51602;-49
2023/02/16 01:27:51;;;;;;;;;43.00;34.00;;;;;;;;5059650;28;51050;-50
2023/02/16 01:30:35;;;;;;;;;42.00;34.75;;;;;;;;5059355;28;51164;-51
2023/02/16 01:33:20;;;;;;;;;44.75;35.25;;;;;;;;5059357;28;51172;-54
2023/02/16 01:36:06;;;;;;;;;41.50;32.50;;;;;;;;5059192;28;51092;-51
2023/02/16 01:38:50;;;;;;;;;52.25;36.00;;;;;;;;5059143;28;51083;-52
2023/02/16 01:42:09;;;;;;;;;50.00;36.00;;;;;;;;5059779;28;51140;-50
2023/02/16 01:45:14;;;;;;;;;49.50;37.00;;;;;;;;4999483;28;51727;-48
2023/02/16 01:48:02;;;;;;;;;45.75;36.00;;;;;;;;5041374;28;51102;-51
2023/02/16 01:50:58;;;;;;;;;52.75;42.00;;;;;;;;5047996;28;51506;-49
2023/02/16 01:53:45;;;;;;;;;55.50;43.50;;;;;;;;5039268;28;51103;-52
2023/02/16 01:56:34;;;;;;;;;53.50;42.50;;;;;;;;5038878;28;51567;-51
2023/02/16 01:59:18;;;;;;;;;58.25;42.75;;;;;;;;5057690;28;51150;-51
2023/02/16 02:02:03;;;;;;;;;59.75;45.50;;;;;;;;5059212;28;51613;-50
2023/02/16 02:08:00;;;;;;;;;64.50;47.75;;;;;;;;5042537;28;51436;-52
2023/02/16 02:10:50;;;;;;;;;67.75;49.00;;;;;;;;5055457;28;51060;-51
2023/02/16 02:13:51;;;;;;;;;66.25;48.00;;;;;;;;5062893;28;51119;-50
2023/02/16 02:16:35;;;;;;;;;62.00;47.75;;;;;;;;5062887;28;51580;-48
2023/02/16 02:19:19;;;;;;;;;67.00;47.50;;;;;;;;5061728;28;51038;-50
2023/02/16 02:25:24;;;;;;;;;66.00;48.75;;;;;;;;5052290;28;51011;-47
2023/02/16 02:28:14;;;;;;;;;63.50;50.00;;;;;;;;5062555;28;51681;-52
2023/02/16 02:31:09;;;;;;;;;59.00;48.25;;;;;;;;5062425;28;51422;-48
2023/02/16 02:34:31;;;;;;;;;63.50;49.00;;;;;;;;5062840;28;51139;-47
2023/02/16 02:37:38;;;;;;;;;65.00;49.75;;;;;;;;5001552;28;51477;-52
2023/02/16 02:40:46;;;;;;;;;68.00;50.75;;;;;;;;5000722;28;51195;-50
2023/02/16 02:43:33;;;;;;;;;68.75;54.25;;;;;;;;5041710;28;51171;-49
2023/02/16 02:46:32;;;;;;;;;71.00;52.75;;;;;;;;5042273;28;51147;-50
2023/02/16 02:49:16;;;;;;;;;71.75;57.75;;;;;;;;5041686;28;51467;-50
2023/02/16 02:52:01;;;;;;;;;69.25;58.00;;;;;;;;5042062;28;51316;-50
2023/02/16 03:00:52;;;;;;;;;16.75;5.00;;;;;;;;5062167;28;51186;-47
2023/02/16 03:03:48;;;;;;;;;70.75;56.00;;;;;;;;5049792;28;51146;-48
2023/02/16 03:06:37;;;;;;;;;73.00;55.50;;;;;;;;5041482;28;51012;-47
2023/02/16 03:09:21;;;;;;;;;66.50;52.50;;;;;;;;5041405;28;51126;-51
2023/02/16 03:15:10;;;;;;;;;56.50;46.00;;;;;;;;5057607;28;51502;-51
2023/02/16 03:30:15;;;;;;;;;65.25;51.00;;;;;;;;5061207;28;51479;-50
2023/02/16 03:33:00;;;;;;;;;66.00;48.50;;;;;;;;5061446;28;51060;-49
2023/02/16 03:35:45;;;;;;;;;64.00;49.75;;;;;;;;5060978;28;51168;-49
2023/02/16 03:38:29;;;;;;;;;63.00;47.50;;;;;;;;5061282;28;51154;-49
2023/02/16 03:41:14;;;;;;;;;55.75;45.00;;;;;;;;5060995;28;50999;-49
2023/02/16 03:43:58;;;;;;;;;59.00;46.25;;;;;;;;5060064;28;51180;-50
2023/02/16 03:46:43;;;;;;;;;53.00;40.50;;;;;;;;5060919;28;51125;-52
2023/02/16 03:49:27;;;;;;;;;60.25;47.75;;;;;;;;5060729;28;51276;-51
2023/02/16 03:52:11;;;;;;;;;64.25;50.00;;;;;;;;5044516;28;51093;-51
2023/02/16 03:54:56;;;;;;;;;65.25;52.25;;;;;;;;5060421;28;51088;-50
2023/02/16 03:57:40;;;;;;;;;71.75;57.50;;;;;;;;5060904;28;51155;-52
2023/02/16 04:00:25;;;;;;;;;75.25;62.75;;;;;;;;5060613;28;51102;-58
2023/02/16 04:03:10;;;;;;;;;73.25;60.25;;;;;;;;5060930;28;51152;-49
2023/02/16 04:05:55;;;;;;;;;75.00;59.50;;;;;;;;5060303;28;51470;-47
2023/02/16 04:08:39;;;;;;;;;75.25;62.75;;;;;;;;5060332;28;51101;-48
2023/02/16 04:14:26;;;;;;;;;78.50;68.75;;;;;;;;5059657;28;51161;-46
2023/02/16 04:17:11;;;;;;;;;72.00;59.25;;;;;;;;5052777;28;51165;-49
2023/02/16 04:19:55;;;;;;;;;72.50;57.00;;;;;;;;5040051;28;51068;-49
2023/02/16 04:22:39;;;;;;;;;65.25;51.25;;;;;;;;5040574;28;51192;-48
2023/02/16 04:25:24;;;;;;;;;70.25;53.50;;;;;;;;5055721;28;51066;-50
2023/02/16 04:28:08;;;;;;;;;68.75;52.75;;;;;;;;5060353;28;51188;-50
2023/02/16 04:30:52;;;;;;;;;69.50;52.25;;;;;;;;5059817;28;51299;-53
2023/02/16 04:33:37;;;;;;;;;63.75;50.00;;;;;;;;5059151;28;51430;-47
2023/02/16 04:36:21;;;;;;;;;65.25;49.50;;;;;;;;5060208;28;51573;-48
2023/02/16 04:39:06;;;;;;;;;63.50;49.00;;;;;;;;5041572;28;51261;-52
2023/02/16 04:41:50;;;;;;;;;70.50;53.00;;;;;;;;5040152;28;51010;-47
2023/02/16 04:44:35;;;;;;;;;66.75;51.25;;;;;;;;5056186;28;51176;-50
2023/02/16 04:47:20;;;;;;;;;66.50;50.75;;;;;;;;5059927;28;51062;-49
2023/02/16 04:50:05;;;;;;;;;67.50;49.75;;;;;;;;5058866;28;51157;-50
2023/02/16 04:52:49;;;;;;;;;64.00;51.25;;;;;;;;5060177;28;51026;-48
2023/02/16 04:55:34;;;;;;;;;66.75;51.75;;;;;;;;5055474;28;51393;-50
2023/02/16 04:58:18;;;;;;;;;64.25;50.50;;;;;;;;5059594;28;51166;-51
2023/02/16 05:01:02;;;;;;;;;65.00;50.75;;;;;;;;5059495;28;51626;-51
2023/02/16 05:03:47;;;;;;;;;66.75;50.00;;;;;;;;5059700;28;51218;-53
2023/02/16 05:06:31;;;;;;;;;65.00;49.25;;;;;;;;5060160;28;51120;-51
2023/02/16 05:09:16;;;;;;;;;67.50;52.00;;;;;;;;5058837;28;51094;-48
2023/02/16 05:15:04;;;;;;;;;71.50;55.00;;;;;;;;5059484;28;51024;-48
2023/02/16 05:17:48;;;;;;;;;70.50;56.00;;;;;;;;5059494;28;51164;-49
2023/02/16 05:23:35;;;;;;;;;70.50;53.00;;;;;;;;5059410;28;51263;-52
2023/02/16 05:26:19;;;;;;;;;70.00;58.00;;;;;;;;5059415;28;51656;-49
2023/02/16 05:29:04;;;;;;;;;68.75;53.50;;;;;;;;5059288;28;51165;-49
2023/02/16 05:31:48;;;;;;;;;69.75;53.00;;;;;;;;5059730;28;52938;-48
2023/02/16 05:34:33;;;;;;;;;72.25;57.25;;;;;;;;5047457;28;51200;-49
2023/02/16 05:37:17;;;;;;;;;68.25;53.50;;;;;;;;5056983;28;51146;-48
2023/02/16 05:40:02;;;;;;;;;70.25;57.00;;;;;;;;5059177;28;51091;-52
2023/02/16 05:42:46;;;;;;;;;70.00;56.50;;;;;;;;5059740;28;51149;-50
2023/02/16 05:45:31;;;;;;;;;74.25;61.00;;;;;;;;5060474;28;51061;-51
2023/02/16 05:48:15;;;;;;;;;72.25;55.50;;;;;;;;5062338;28;51097;-52
2023/02/16 05:50:59;;;;;;;;;71.25;56.25;;;;;;;;5048173;28;51135;-49
2023/02/16 05:53:44;;;;;;;;;71.25;57.25;;;;;;;;5043128;28;51131;-52
2023/02/16 05:56:28;;;;;;;;;73.50;57.00;;;;;;;;5061637;28;51171;-52
2023/02/16 05:59:13;;;;;;;;;70.00;55.00;;;;;;;;5062703;28;51553;-52
2023/02/16 06:01:57;;;;;;;;;70.50;52.25;;;;;;;;5063083;28;51282;-49
2023/02/16 06:04:41;;;;;;;;;69.75;51.75;;;;;;;;5062653;28;51062;-48
2023/02/16 06:07:26;;;;;;;;;67.75;53.25;;;;;;;;5062832;28;51105;-50
2023/02/16 06:10:10;;;;;;;;;71.75;52.25;;;;;;;;5062423;28;51489;-49
2023/02/16 06:12:55;;;;;;;;;66.25;51.00;;;;;;;;5062994;28;51165;-50
2023/02/16 06:15:39;;;;;;;;;64.00;52.00;;;;;;;;5062899;28;51697;-50
2023/02/16 06:18:24;;;;;;;;;69.75;51.75;;;;;;;;5057270;28;51094;-50
2023/02/16 06:21:08;;;;;;;;;71.50;57.75;;;;;;;;5054399;28;51189;-47
2023/02/16 06:23:53;;;;;;;;;72.00;57.25;;;;;;;;5062449;28;51445;-49
2023/02/16 06:26:37;;;;;;;;;71.75;54.25;;;;;;;;5062322;28;50967;-48
2023/02/16 06:29:21;;;;;;;;;69.00;55.50;;;;;;;;5062147;28;51168;-45
2023/02/16 06:32:06;;;;;;;;;66.25;51.25;;;;;;;;5062593;28;51151;-45
2023/02/16 06:34:50;;;;;;;;;77.00;60.00;;;;;;;;5062188;28;51071;-45
2023/02/16 06:37:34;;;;;;;;;74.50;59.25;;;;;;;;5062006;28;51134;-45
2023/02/16 06:40:19;;;;;;;;;71.50;56.00;;;;;;;;5052397;28;51677;-44
2023/02/16 06:43:03;;;;;;;;;77.50;67.00;;;;;;;;5041823;28;51026;-45
2023/02/16 06:45:48;;;;;;;;;71.00;58.25;;;;;;;;5042184;28;51180;-45
2023/02/16 06:48:32;;;;;;;;;70.25;56.25;;;;;;;;5042085;28;51502;-46
2023/02/16 06:51:17;;;;;;;;;74.00;53.50;;;;;;;;5053985;28;51627;-47
2023/02/16 06:54:02;;;;;;;;;72.25;52.50;;;;;;;;5055961;28;51220;-46
2023/02/16 06:56:46;;;;;;;;;76.25;63.00;;;;;;;;5061037;28;51113;-45
2023/02/16 06:59:30;;;;;;;;;70.50;56.50;;;;;;;;5061575;28;51474;-46
2023/02/16 07:02:15;;;;;;;;;73.00;57.50;;;;;;;;5061784;28;51195;-45
2023/02/16 07:04:59;;;;;;;;;69.00;53.75;;;;;;;;5061641;28;51272;-45
2023/02/16 07:07:44;;;;;;;;;67.25;51.75;;;;;;;;5061320;28;51216;-44
2023/02/16 07:10:49;;;;;;;;;74.50;57.00;;;;;;;;5038664;28;51109;-44
2023/02/16 07:13:35;;;;;;;;;75.75;59.25;;;;;;;;5038900;28;51475;-49
2023/02/16 07:16:20;;;;;;;;;72.50;56.25;;;;;;;;5022158;28;51554;-45
2023/02/16 07:19:05;;;;;;;;;69.50;55.25;;;;;;;;5025228;28;51138;-46
2023/02/16 07:21:50;;;;;;;;;70.75;52.75;;;;;;;;5038890;28;51124;-48
2023/02/16 07:24:34;;;;;;;;;67.00;52.00;;;;;;;;5037106;28;51362;-45
2023/02/16 07:27:18;;;;;;;;;63.75;50.50;;;;;;;;5033746;28;51178;-46
2023/02/16 07:30:02;;;;;;;;;62.75;49.50;;;;;;;;5019334;28;51678;-46
2023/02/16 07:32:46;;;;;;;;;61.00;46.75;;;;;;;;5018196;28;51200;-44
2023/02/16 07:35:30;;;;;;;;;63.75;48.50;;;;;;;;5018725;28;51068;-45
2023/02/16 07:38:15;;;;;;;;;68.25;50.25;;;;;;;;5022794;28;51093;-44
2023/02/16 07:40:59;;;;;;;;;63.00;49.25;;;;;;;;5025166;28;51673;-45
2023/02/16 07:43:43;;;;;;;;;70.00;53.50;;;;;;;;5040594;28;51169;-45
2023/02/16 07:46:28;;;;;;;;;64.50;48.75;;;;;;;;5041012;28;51106;-46
2023/02/16 07:49:12;;;;;;;;;61.50;48.25;;;;;;;;5040661;28;51161;-45
2023/02/16 07:51:57;;;;;;;;;62.75;47.25;;;;;;;;5040372;28;51042;-46
2023/02/16 07:54:41;;;;;;;;;69.75;54.00;;;;;;;;5040682;28;51717;-43
2023/02/16 07:57:26;;;;;;;;;67.75;52.50;;;;;;;;5040420;28;51134;-44
2023/02/16 08:00:10;;;;;;;;;63.50;50.00;;;;;;;;5059202;28;51081;-44
2023/02/16 08:02:55;;;;;;;;;65.75;49.25;;;;;;;;5060369;28;51196;-45
2023/02/16 08:05:39;;;;;;;;;69.25;50.25;;;;;;;;5060630;28;51595;-44
2023/02/16 08:08:24;;;;;;;;;64.25;47.25;;;;;;;;5055516;28;50999;-46
2023/02/16 08:11:09;;;;;;;;;59.25;44.75;;;;;;;;5060579;28;51061;-48
2023/02/16 08:13:54;;;;;;;;;60.50;46.00;;;;;;;;5057698;28;51424;-45
2023/02/16 08:16:38;;;;;;;;;62.50;49.00;;;;;;;;5040201;28;51135;-45
2023/02/16 08:19:23;;;;;;;;;58.75;46.25;;;;;;;;5048076;28;51654;-46
2023/02/16 08:22:07;;;;;;;;;57.25;44.25;;;;;;;;5045496;28;51157;-48
2023/02/16 08:24:52;;;;;;;;;64.75;49.50;;;;;;;;5060415;28;51173;-47
2023/02/16 08:27:37;;;;;;;;;52.25;37.50;;;;;;;;5039891;28;51142;-46
2023/02/16 08:33:07;;;;;;;;;64.50;48.50;;;;;;;;4996560;28;51102;-45
2023/02/16 08:35:51;;;;;;;;;67.50;51.00;;;;;;;;4994600;28;51166;-45
2023/02/16 08:38:36;;;;;;;;;64.75;49.00;;;;;;;;4995158;28;51432;-44
2023/02/16 08:41:21;;;;;;;;;66.00;52.00;;;;;;;;4995208;28;51227;-46
2023/02/16 08:44:07;;;;;;;;;65.50;48.00;;;;;;;;4995622;28;51273;-45
2023/02/16 08:46:52;;;;;;;;;66.75;51.50;;;;;;;;5000119;28;51835;-47
2023/02/16 08:49:38;;;;;;;;;60.00;48.50;;;;;;;;4996860;28;51209;-45
2023/02/16 08:52:22;;;;;;;;;64.75;49.75;;;;;;;;4996466;28;51165;-45
2023/02/16 08:55:06;;;;;;;;;63.00;48.50;;;;;;;;4997259;28;51742;-45
2023/02/16 08:57:50;;;;;;;;;67.75;49.25;;;;;;;;4996452;28;51140;-45
2023/02/16 09:00:34;;;;;;;;;66.75;50.75;;;;;;;;4999040;28;53068;-45
2023/02/16 09:03:18;;;;;;;;;71.50;55.00;;;;;;;;4996576;28;51497;-44
2023/02/16 09:06:04;;;;;;;;;80.50;64.50;;;;;;;;4996179;28;51114;-47
2023/02/16 09:08:52;;;;;;;;;71.75;54.00;;;;;;;;4995540;28;51555;-48
2023/02/16 09:11:36;;;;;;;;;74.25;54.25;;;;;;;;5042624;28;51118;-45
2023/02/16 09:14:21;;;;;;;;;63.50;50.50;;;;;;;;5040481;28;51050;-45
2023/02/16 09:17:05;;;;;;;;;72.50;52.00;;;;;;;;5043251;28;51076;-47
2023/02/16 09:19:50;;;;;;;;;70.00;50.00;;;;;;;;5039017;28;51548;-45
2023/02/16 09:22:34;;;;;;;;;73.25;50.50;;;;;;;;5043731;28;51153;-46
2023/02/16 09:25:19;;;;;;;;;68.25;48.75;;;;;;;;5040392;28;51136;-46
2023/02/16 09:28:05;;;;;;;;;72.50;50.25;;;;;;;;5045615;28;51562;-46
2023/02/16 09:30:49;;;;;;;;;72.25;51.25;;;;;;;;5047187;28;51125;-49
2023/02/16 09:33:33;;;;;;;;;72.25;54.00;;;;;;;;5043351;28;51134;-46
2023/02/16 09:36:18;;;;;;;;;81.25;56.25;;;;;;;;5052130;28;51157;-44
2023/02/16 09:39:02;;;;;;;;;71.00;52.25;;;;;;;;5043358;28;51106;-47
2023/02/16 09:41:53;;;;;;;;;71.50;52.00;;;;;;;;5046470;28;51173;-46
2023/02/16 09:44:55;;;;;;;;;73.25;55.00;;;;;;;;5041961;28;51637;-46
2023/02/16 09:47:44;;;;;;;;;80.25;59.25;;;;;;;;5043749;28;51140;-46
2023/02/16 09:50:32;;;;;;;;;72.75;53.75;;;;;;;;5043742;28;51139;-46
2023/02/16 09:53:19;;;;;;;;;72.00;52.00;;;;;;;;5044948;28;51550;-45
2023/02/16 09:56:39;;;;;;;;;73.00;51.75;;;;;;;;5038513;28;51236;-45
2023/02/16 09:59:39;;;;;;;;;55.25;27.50;;;;;;;;5006679;28;51198;-47
2023/02/16 10:02:33;;;;;;;;;75.25;59.50;;;;;;;;5044206;28;51172;-48
2023/02/16 10:05:36;;;;;;;;;77.50;56.50;;;;;;;;5039946;28;51245;-46
2023/02/16 10:08:24;;;;;;;;;76.75;55.00;;;;;;;;5038632;28;51122;-45
2023/02/16 10:14:29;;;;;;;;;82.00;57.25;;;;;;;;5047230;28;51211;-45
2023/02/16 10:17:18;;;;;;;;;77.25;50.75;;;;;;;;5045439;28;51076;-46
2023/02/16 10:20:04;;;;;;;;;73.50;52.75;;;;;;;;5048535;28;51074;-45
2023/02/16 10:22:54;;;;;;;;;93.50;70.00;;;;;;;;5045093;28;51086;-46
2023/02/16 10:25:38;;;;;;;;;93.00;67.00;;;;;;;;5045194;28;52061;-45
2023/02/16 10:28:39;;;;;;;;;93.50;63.00;;;;;;;;5045676;28;51115;-46
2023/02/16 10:31:43;;;;;;;;;82.50;62.50;;;;;;;;5050997;28;51459;-46
2023/02/16 10:34:30;;;;;;;;;81.50;60.50;;;;;;;;5047425;28;51178;-46
2023/02/16 10:37:32;;;;;;;;;73.50;50.75;;;;;;;;5044844;28;51705;-46
2023/02/16 10:40:35;;;;;;;;;88.00;61.00;;;;;;;;5047337;28;51163;-45
2023/02/16 10:43:40;;;;;;;;;65.75;46.50;;;;;;;;5047044;28;51186;-45
2023/02/16 10:46:29;;;;;;;;;74.00;51.25;;;;;;;;5051473;28;51542;-48
2023/02/16 10:49:14;;;;;;;;;72.00;47.00;;;;;;;;5045940;28;51130;-45
2023/02/16 10:52:00;;;;;;;;;68.75;46.00;;;;;;;;5047249;28;51637;-46
2023/02/16 10:54:45;;;;;;;;;58.50;41.25;;;;;;;;5055269;28;51066;-46
2023/02/16 10:57:30;;;;;;;;;72.75;51.75;;;;;;;;5044067;28;51188;-47
2023/02/16 11:00:17;;;;;;;;;70.75;51.25;;;;;;;;5044555;28;51133;-46
2023/02/16 11:03:02;;;;;;;;;73.75;50.75;;;;;;;;5054708;28;51657;-49
2023/02/16 11:05:47;;;;;;;;;75.25;54.00;;;;;;;;5043743;28;51191;-47
2023/02/16 11:08:45;;;;;;;;;65.75;50.75;;;;;;;;5050789;28;51198;-47
2023/02/16 11:11:34;;;;;;;;;78.50;53.00;;;;;;;;5048037;28;51140;-47
2023/02/16 11:14:20;;;;;;;;;73.50;52.50;;;;;;;;5044002;28;51188;-46
2023/02/16 11:19:53;;;;;;;;;84.25;56.50;;;;;;;;4984490;28;51267;-47
2023/02/16 11:22:40;;;;;;;;;78.25;54.50;;;;;;;;4983411;28;51224;-46
2023/02/16 11:25:25;;;;;;;;;62.25;47.25;;;;;;;;4984591;28;51276;-44
2023/02/16 11:28:11;;;;;;;;;78.00;52.00;;;;;;;;4969502;28;51653;-46
2023/02/16 11:31:10;;;;;;;;;76.50;53.50;;;;;;;;4982624;28;51306;-49
2023/02/16 11:34:02;;;;;;;;;75.75;52.75;;;;;;;;4982139;28;51447;-46
2023/02/16 11:36:47;;;;;;;;;70.25;47.25;;;;;;;;4985952;28;51426;-47
2023/02/16 11:39:36;;;;;;;;;78.00;51.50;;;;;;;;4985317;28;51127;-46
2023/02/16 11:42:26;;;;;;;;;74.00;55.00;;;;;;;;4980594;28;51273;-46
2023/02/16 11:45:21;;;;;;;;;74.75;52.00;;;;;;;;4998695;28;51389;-45
2023/02/16 11:50:59;;;;;;;;;71.00;47.50;;;;;;;;4975118;28;51317;-46
2023/02/16 11:53:58;;;;;;;;;78.25;52.25;;;;;;;;4936633;28;51610;-47
2023/02/16 11:56:42;;;;;;;;;77.75;49.75;;;;;;;;4944504;28;51287;-45
2023/02/16 11:59:30;;;;;;;;;74.00;52.50;;;;;;;;4953327;28;51083;-48
2023/02/16 12:02:17;;;;;;;;;79.25;52.00;;;;;;;;4939280;28;51570;-47
2023/02/16 12:05:09;;;;;;;;;81.75;58.00;;;;;;;;4943789;28;50999;-47
2023/02/16 12:08:12;;;;;;;;;83.75;63.00;;;;;;;;4948600;28;51810;-45
2023/02/16 12:11:05;;;;;;;;;84.75;64.75;;;;;;;;4944521;28;51183;-46
2023/02/16 12:14:07;;;;;;;;;84.50;59.75;;;;;;;;4939469;28;51174;-44
2023/02/16 12:16:56;;;;;;;;;78.25;51.00;;;;;;;;4934087;28;51168;-47
2023/02/16 12:19:42;;;;;;;;;78.50;53.75;;;;;;;;4955359;28;51321;-48
2023/02/16 12:22:38;;;;;;;;;80.00;53.50;;;;;;;;4946834;28;52294;-45
2023/02/16 12:25:33;;;;;;;;;81.00;55.75;;;;;;;;4948204;28;51089;-46
2023/02/16 12:28:30;;;;;;;;;80.75;58.00;;;;;;;;4978938;28;51372;-48
2023/02/16 12:31:16;;;;;;;;;81.25;59.00;;;;;;;;5033483;28;51113;-46
2023/02/16 12:34:03;;;;;;;;;85.00;57.75;;;;;;;;5059000;28;51197;-46
2023/02/16 12:37:08;;;;;;;;;75.00;52.75;;;;;;;;5059911;28;51168;-45
2023/02/16 12:40:10;;;;;;;;;79.25;53.50;;;;;;;;5054010;28;51042;-45
2023/02/16 12:43:07;;;;;;;;;86.25;56.75;;;;;;;;5058559;28;51113;-45
2023/02/16 12:45:53;;;;;;;;;78.25;55.00;;;;;;;;5059703;28;51748;-44
2023/02/16 12:48:47;;;;;;;;;80.75;58.75;;;;;;;;5059430;28;51173;-46
2023/02/16 12:51:37;;;;;;;;;69.50;48.25;;;;;;;;5042422;28;51071;-47
2023/02/16 12:54:25;;;;;;;;;78.25;53.25;;;;;;;;5038862;28;51486;-48
2023/02/16 12:57:12;;;;;;;;;79.00;55.25;;;;;;;;5039643;28;51054;-45
2023/02/16 13:00:00;;;;;;;;;83.25;60.75;;;;;;;;5039608;28;51104;-47
2023/02/16 13:02:49;;;;;;;;;82.00;64.00;;;;;;;;5039411;28;51127;-44
2023/02/16 13:05:37;;;;;;;;;67.00;54.00;;;;;;;;5039292;28;51213;-45
2023/02/16 13:08:25;;;;;;;;;82.50;56.00;;;;;;;;5042655;28;51166;-46
2023/02/16 13:11:27;;;;;;;;;84.25;58.00;;;;;;;;5054432;28;51612;-45
2023/02/16 13:14:31;;;;;;;;;84.50;59.00;;;;;;;;5058574;28;51076;-45
2023/02/16 13:17:20;;;;;;;;;75.25;54.50;;;;;;;;5059722;28;51176;-45
2023/02/16 13:20:13;;;;;;;;;75.50;58.50;;;;;;;;5058787;28;51125;-45
2023/02/16 13:23:16;;;;;;;;;83.00;56.00;;;;;;;;5051442;28;51243;-45
2023/02/16 13:26:00;;;;;;;;;80.25;56.25;;;;;;;;5059161;28;51753;-47
2023/02/16 13:28:47;;;;;;;;;94.50;64.25;;;;;;;;5059459;28;51089;-46
2023/02/16 13:32:01;;;;;;;;;88.25;64.50;;;;;;;;5031497;28;51152;-46
2023/02/16 13:35:08;;;;;;;;;80.50;59.50;;;;;;;;5024464;28;51109;-47
2023/02/16 13:38:25;;;;;;;;;82.00;64.50;;;;;;;;4993531;28;51710;-44
2023/02/16 13:41:21;;;;;;;;;85.50;62.00;;;;;;;;4990126;28;51315;-46
2023/02/16 13:44:11;;;;;;;;;88.25;58.50;;;;;;;;5016154;28;51095;-46
2023/02/16 13:46:55;;;;;;;;;86.25;59.75;;;;;;;;5016289;28;51489;-47
2023/02/16 13:49:41;;;;;;;;;93.25;61.75;;;;;;;;5016154;28;51221;-44
2023/02/16 13:52:30;;;;;;;;;87.75;58.50;;;;;;;;5016221;28;51674;-46
2023/02/16 13:55:20;;;;;;;;;92.50;61.50;;;;;;;;5018177;28;51144;-45
2023/02/16 13:58:15;;;;;;;;;83.75;60.50;;;;;;;;5034049;28;51159;-47
2023/02/16 14:01:19;;;;;;;;;85.25;64.75;;;;;;;;5016310;28;51570;-44
2023/02/16 14:04:05;;;;;;;;;80.75;50.50;;;;;;;;5017212;28;51189;-45
2023/02/16 14:06:50;;;;;;;;;102.50;76.50;;;;;;;;5018150;28;51161;-47
2023/02/16 14:09:37;;;;;;;;;91.50;65.50;;;;;;;;5019035;28;51189;-47
2023/02/16 14:12:30;;;;;;;;;108.75;66.25;;;;;;;;5037415;28;51507;-47
2023/02/16 14:15:19;;;;;;;;;96.75;70.00;;;;;;;;5052529;28;51119;-45
2023/02/16 14:18:19;;;;;;;;;103.25;75.50;;;;;;;;5057675;28;52052;-46
2023/02/16 14:21:04;;;;;;;;;86.00;61.50;;;;;;;;5048786;28;51061;-46
2023/02/16 14:23:56;;;;;;;;;94.50;67.00;;;;;;;;5050116;28;51089;-46
2023/02/16 14:26:58;;;;;;;;;88.50;62.25;;;;;;;;5045433;28;51237;-47
2023/02/16 14:29:42;;;;;;;;;84.50;59.50;;;;;;;;5054372;28;53026;-46
2023/02/16 14:32:27;;;;;;;;;97.25;70.25;;;;;;;;5061875;28;51132;-46
2023/02/16 14:35:14;;;;;;;;;91.25;70.25;;;;;;;;5058006;28;51126;-45
2023/02/16 14:38:01;;;;;;;;;90.50;64.50;;;;;;;;5053775;28;51136;-45
2023/02/16 14:40:54;;;;;;;;;85.50;66.25;;;;;;;;5059527;28;51149;-46
2023/02/16 14:43:39;;;;;;;;;86.50;65.00;;;;;;;;5043389;28;51126;-46
2023/02/16 14:46:29;;;;;;;;;101.75;70.50;;;;;;;;5047290;28;51132;-46
2023/02/16 14:49:35;;;;;;;;;95.25;74.25;;;;;;;;5052104;28;52133;-45
2023/02/16 14:52:19;;;;;;;;;101.25;73.25;;;;;;;;5056209;28;51192;-46
2023/02/16 14:55:06;;;;;;;;;86.50;64.75;;;;;;;;5061204;28;51121;-45
2023/02/16 14:58:09;;;;;;;;;91.50;66.25;;;;;;;;5048781;28;51059;-45
2023/02/16 15:01:02;;;;;;;;;96.25;66.00;;;;;;;;5042031;28;51063;-45
2023/02/16 15:03:49;;;;;;;;;93.75;67.75;;;;;;;;5050992;28;51640;-46
2023/02/16 15:06:45;;;;;;;;;102.75;76.00;;;;;;;;5057472;28;51152;-46
2023/02/16 15:09:32;;;;;;;;;96.00;72.25;;;;;;;;5052155;28;51172;-44
2023/02/16 15:12:22;;;;;;;;;103.00;79.25;;;;;;;;5061868;28;51052;-46
2023/02/16 15:15:12;;;;;;;;;96.25;66.50;;;;;;;;5061502;28;51535;-45
2023/02/16 15:17:56;;;;;;;;;98.50;72.50;;;;;;;;5049792;28;51315;-47
2023/02/16 15:20:43;;;;;;;;;97.25;71.50;;;;;;;;5041108;28;51558;-48
2023/02/16 15:23:28;;;;;;;;;100.00;71.75;;;;;;;;5041341;28;51153;-46
2023/02/16 15:26:49;;;;;;;;;94.50;70.50;;;;;;;;5040287;28;51027;-49
2023/02/16 15:29:34;;;;;;;;;77.75;55.00;;;;;;;;5045209;28;51347;-45
2023/02/16 15:32:19;;;;;;;;;80.25;53.50;;;;;;;;5041130;28;51096;-45
2023/02/16 15:35:11;;;;;;;;;80.25;59.50;;;;;;;;5040781;28;51181;-47
2023/02/16 15:37:59;;;;;;;;;86.75;61.75;;;;;;;;5045354;28;51048;-44
2023/02/16 15:40:44;;;;;;;;;86.00;56.00;;;;;;;;5055611;28;51268;-45
2023/02/16 15:43:31;;;;;;;;;75.25;52.25;;;;;;;;5061355;28;51179;-46
2023/02/16 15:46:36;;;;;;;;;75.00;53.75;;;;;;;;5061203;28;51715;-45
2023/02/16 15:49:25;;;;;;;;;78.00;56.00;;;;;;;;5051072;28;51122;-46
2023/02/16 15:52:27;;;;;;;;;83.25;60.00;;;;;;;;5054181;28;51118;-45
2023/02/16 15:55:12;;;;;;;;;74.50;54.00;;;;;;;;5037627;28;51424;-46
2023/02/16 15:57:57;;;;;;;;;75.00;50.50;;;;;;;;5046597;28;51123;-46
2023/02/16 16:00:43;;;;;;;;;79.00;53.25;;;;;;;;5056259;28;51113;-45
2023/02/16 16:03:29;;;;;;;;;80.00;53.75;;;;;;;;5055682;28;51619;-47
2023/02/16 16:06:13;;;;;;;;;77.50;55.25;;;;;;;;5045462;28;51172;-46
2023/02/16 16:08:58;;;;;;;;;75.00;49.50;;;;;;;;5051837;28;51090;-45
2023/02/16 16:11:42;;;;;;;;;72.50;47.00;;;;;;;;5053938;28;51604;-48
2023/02/16 16:14:27;;;;;;;;;74.25;50.50;;;;;;;;5042122;28;51252;-45
2023/02/16 16:17:15;;;;;;;;;81.25;55.50;;;;;;;;5040616;28;51071;-45
2023/02/16 16:20:17;;;;;;;;;79.00;58.50;;;;;;;;5040746;28;51490;-47
2023/02/16 16:23:04;;;;;;;;;78.00;58.25;;;;;;;;5055601;28;51157;-46
2023/02/16 16:25:48;;;;;;;;;85.50;54.50;;;;;;;;5059156;28;51407;-44
2023/02/16 16:28:36;;;;;;;;;80.50;53.75;;;;;;;;5058436;28;51097;-45
2023/02/16 16:31:21;;;;;;;;;76.25;60.25;;;;;;;;5060135;28;51136;-45
2023/02/16 16:34:07;;;;;;;;;84.00;60.50;;;;;;;;5059150;28;51229;-48
2023/02/16 16:36:56;;;;;;;;;84.50;64.50;;;;;;;;5060533;28;51077;-47
2023/02/16 16:39:41;;;;;;;;;86.50;57.50;;;;;;;;5047841;28;51089;-45
2023/02/16 16:42:25;;;;;;;;;88.00;59.00;;;;;;;;5039905;28;51107;-48
2023/02/16 16:45:21;;;;;;;;;80.75;57.75;;;;;;;;5039820;28;51417;-47
2023/02/16 16:48:15;;;;;;;;;91.25;60.75;;;;;;;;5049545;28;51152;-46
2023/02/16 16:51:10;;;;;;;;;96.50;66.00;;;;;;;;5040464;28;51138;-47
2023/02/16 16:53:56;;;;;;;;;92.25;68.75;;;;;;;;5059009;28;51065;-47
2023/02/16 16:56:40;;;;;;;;;81.25;65.75;;;;;;;;5058493;28;51145;-47
2023/02/16 16:59:24;;;;;;;;;92.25;65.00;;;;;;;;5050974;28;51114;-47
2023/02/16 17:02:09;;;;;;;;;91.00;64.75;;;;;;;;5045780;28;51623;-45
2023/02/16 17:04:53;;;;;;;;;88.25;69.75;;;;;;;;5055643;28;51174;-47
2023/02/16 17:07:38;;;;;;;;;99.25;72.00;;;;;;;;5058987;28;50999;-44
2023/02/16 17:10:24;;;;;;;;;86.50;64.50;;;;;;;;5042453;28;52135;-46
2023/02/16 17:13:12;;;;;;;;;78.25;61.50;;;;;;;;5039701;28;51559;-45